createdAt,value
2019-02-26T00:02:00.476Z,198.97
2019-02-26T00:04:32.613Z,193.70
2019-02-26T00:07:02.787Z,200.57
2019-02-26T00:09:35.370Z,184.10
2019-02-26T00:12:05.657Z,190.83
2019-02-26T00:14:37.242Z,194.87
2019-02-26T00:17:10.617Z,197.00
2019-02-26T00:19:40.044Z,185.53
2019-02-26T00:22:12.148Z,179.90
2019-02-26T00:24:44.390Z,166.67
2019-02-26T00:27:15.074Z,172.17
2019-02-26T00:29:46.367Z,170.63
2019-02-26T00:32:18.497Z,163.00
2019-02-26T00:34:50.204Z,161.60
2019-02-26T00:37:22.245Z,155.10
2019-02-26T00:39:54.153Z,161.00
2019-02-26T00:42:28.671Z,162.60
2019-02-26T00:45:01.019Z,146.77
2019-02-26T00:47:34.428Z,149.20
2019-02-26T00:50:07.302Z,139.00
2019-02-26T00:52:39.222Z,160.17
2019-02-26T00:55:10.106Z,139.93
2019-02-26T00:57:42.914Z,152.17
2019-02-26T01:00:14.808Z,153.47
2019-02-26T01:02:45.559Z,133.70
2019-02-26T01:05:16.730Z,150.13
2019-02-26T01:07:49.420Z,152.50
2019-02-26T01:10:21.235Z,148.83
2019-02-26T01:12:51.720Z,148.57
2019-02-26T01:15:22.336Z,148.57
2019-02-26T01:17:54.971Z,149.57
2019-02-26T01:20:27.525Z,144.37
2019-02-26T01:22:57.260Z,136.77
2019-02-26T01:25:27.995Z,142.37
2019-02-26T01:28:00.412Z,142.27
2019-02-26T01:30:33.722Z,145.17
2019-02-26T01:33:05.560Z,138.17
2019-02-26T01:35:37.753Z,121.90
2019-02-26T01:38:08.420Z,114.80
2019-02-26T01:40:41.508Z,112.87
2019-02-26T01:43:11.144Z,114.70
2019-02-26T01:45:41.644Z,72.03
2019-02-26T01:48:16.153Z,99.90
2019-02-26T01:50:44.344Z,99.67
2019-02-26T01:53:16.924Z,99.70
2019-02-26T01:55:50.450Z,84.77
2019-02-26T01:58:20.962Z,91.70
2019-02-26T02:00:55.325Z,86.60
2019-02-26T02:03:25.554Z,83.70
2019-02-26T02:05:55.860Z,81.63
2019-02-26T02:08:27.953Z,73.03
2019-02-26T02:10:59.837Z,76.93
2019-02-26T02:13:32.635Z,56.50
2019-02-26T02:16:04.540Z,70.13
2019-02-26T02:18:35.984Z,60.90
2019-02-26T02:21:06.681Z,66.60
2019-02-26T02:23:37.208Z,63.50
2019-02-26T02:26:09.373Z,60.30
2019-02-26T02:28:40.263Z,65.70
2019-02-26T02:31:10.917Z,63.30
2019-02-26T02:33:41.471Z,57.77
2019-02-26T02:36:14.774Z,56.80
2019-02-26T02:38:44.226Z,65.30
2019-02-26T02:41:14.857Z,62.87
2019-02-26T02:43:45.325Z,54.20
2019-02-26T02:46:15.939Z,51.30
2019-02-26T02:48:46.455Z,53.33
2019-02-26T02:51:16.909Z,47.83
2019-02-26T02:53:47.862Z,60.80
2019-02-26T02:56:22.661Z,62.97
2019-02-26T02:58:53.219Z,58.60
2019-02-26T03:01:25.840Z,46.57
2019-02-26T03:03:58.292Z,64.93
2019-02-26T03:06:30.101Z,63.57
2019-02-26T03:09:00.454Z,62.47
2019-02-26T03:11:36.046Z,58.17
2019-02-26T03:14:06.193Z,36.00
2019-02-26T03:16:35.901Z,64.10
2019-02-26T03:19:07.774Z,53.90
2019-02-26T03:21:38.628Z,61.30
2019-02-26T03:24:10.510Z,46.20
2019-02-26T03:26:42.111Z,55.93
2019-02-26T03:29:12.572Z,60.10
2019-02-26T03:31:47.114Z,60.30
2019-02-26T03:34:20.428Z,59.13
2019-02-26T03:36:47.420Z,58.33
2019-02-26T03:39:17.914Z,67.23
2019-02-26T03:41:50.928Z,60.37
2019-02-26T03:44:20.994Z,63.27
2019-02-26T03:46:51.470Z,64.83
2019-02-26T03:49:26.303Z,63.43
2019-02-26T03:51:59.064Z,67.97
2019-02-26T03:54:26.246Z,53.60
2019-02-26T03:56:56.902Z,58.63
2019-02-26T03:59:27.830Z,62.67
2019-02-26T04:01:58.518Z,65.30
2019-02-26T04:04:31.195Z,64.67
2019-02-26T04:07:04.134Z,63.20
2019-02-26T04:09:33.587Z,74.10
2019-02-26T04:12:04.244Z,66.10
2019-02-26T04:14:34.754Z,68.93
2019-02-26T04:17:06.442Z,59.63
2019-02-26T04:19:37.507Z,61.23
2019-02-26T04:22:40.244Z,57.33
2019-02-26T04:25:22.288Z,70.43
2019-02-26T04:28:16.014Z,57.50
2019-02-26T04:31:24.910Z,67.07
2019-02-26T04:34:08.563Z,69.57
2019-02-26T04:37:13.411Z,69.30
2019-02-26T04:40:22.404Z,59.17
2019-02-26T04:43:31.313Z,68.73
2019-02-26T04:46:28.229Z,77.03
2019-02-26T04:48:58.182Z,78.37
2019-02-26T04:51:28.681Z,69.70
2019-02-26T04:54:00.105Z,83.10
2019-02-26T04:56:36.043Z,89.67
2019-02-26T04:59:06.238Z,82.67
2019-02-26T05:01:36.142Z,50.53
2019-02-26T05:04:07.087Z,79.07
2019-02-26T05:06:37.751Z,81.37
2019-02-26T05:09:10.495Z,81.43
2019-02-26T05:11:40.899Z,106.47
2019-02-26T05:14:12.245Z,115.80
2019-02-26T05:16:43.683Z,101.93
2019-02-26T05:19:16.311Z,94.03
2019-02-26T05:21:46.859Z,100.30
2019-02-26T05:24:17.925Z,93.47
2019-02-26T05:26:49.691Z,79.67
2019-02-26T05:29:20.845Z,111.50
2019-02-26T05:31:51.274Z,109.80
2019-02-26T05:34:23.185Z,101.63
2019-02-26T05:36:54.042Z,102.30
2019-02-26T05:39:26.740Z,96.30
2019-02-26T05:41:58.917Z,103.73
2019-02-26T05:44:29.048Z,95.27
2019-02-26T05:47:01.596Z,82.87
2019-02-26T05:49:34.475Z,104.40
2019-02-26T05:52:06.933Z,94.73
2019-02-26T05:54:36.582Z,102.90
2019-02-26T05:57:09.477Z,99.40
2019-02-26T05:59:41.832Z,95.30
2019-02-26T06:02:14.048Z,97.33
2019-02-26T06:04:46.572Z,103.13
2019-02-26T06:07:19.168Z,92.63
2019-02-26T06:09:50.920Z,90.90
2019-02-26T06:12:20.709Z,73.43
2019-02-26T06:14:51.597Z,58.60
2019-02-26T06:17:23.695Z,36.10
2019-02-26T06:19:57.263Z,69.13
2019-02-26T06:22:29.674Z,61.97
2019-02-26T06:25:04.049Z,61.90
2019-02-26T06:27:32.997Z,56.20
2019-02-26T06:30:06.536Z,50.00
2019-02-26T06:32:37.922Z,56.23
2019-02-26T06:35:11.089Z,53.70
2019-02-26T06:37:42.867Z,55.63
2019-02-26T06:40:14.120Z,48.57
2019-02-26T06:42:44.994Z,55.97
2019-02-26T06:45:16.819Z,57.77
2019-02-26T06:47:48.427Z,53.60
2019-02-26T06:50:20.015Z,49.33
2019-02-26T06:52:50.920Z,39.30
2019-02-26T06:55:21.433Z,50.47
2019-02-26T06:57:52.867Z,43.53
2019-02-26T07:00:26.711Z,41.70
2019-02-26T07:02:56.362Z,46.90
2019-02-26T07:05:26.840Z,38.70
2019-02-26T07:07:59.466Z,43.83
2019-02-26T07:10:31.384Z,28.33
2019-02-26T07:13:02.605Z,33.50
2019-02-26T07:15:34.457Z,34.97
2019-02-26T07:18:07.689Z,32.33
2019-02-26T07:20:40.009Z,35.87
2019-02-26T07:23:11.075Z,29.97
2019-02-26T07:25:44.047Z,28.00
2019-02-26T07:28:15.321Z,20.27
2019-02-26T07:30:47.000Z,26.07
2019-02-26T07:33:17.571Z,26.40
2019-02-26T07:35:48.305Z,30.43
2019-02-26T07:38:20.659Z,17.50
2019-02-26T07:40:51.042Z,19.33
2019-02-26T07:43:22.597Z,24.57
2019-02-26T07:45:53.189Z,25.17
2019-02-26T07:48:26.401Z,18.83
2019-02-26T07:50:56.702Z,22.17
2019-02-26T07:53:28.227Z,20.17
2019-02-26T07:55:59.624Z,30.87
2019-02-26T07:58:33.167Z,22.13
2019-02-26T08:01:03.443Z,20.93
2019-02-26T08:03:34.033Z,27.23
2019-02-26T08:06:06.670Z,18.87
2019-02-26T08:08:37.877Z,24.03
2019-02-26T08:11:09.538Z,16.10
2019-02-26T08:13:40.153Z,16.43
2019-02-26T08:16:10.815Z,17.67
2019-02-26T08:18:41.263Z,17.60
2019-02-26T08:21:11.790Z,21.73
2019-02-26T08:23:43.715Z,16.10
2019-02-26T08:26:17.938Z,16.83
2019-02-26T08:28:48.275Z,19.97
2019-02-26T08:31:20.671Z,22.20
2019-02-26T08:33:51.864Z,23.93
2019-02-26T08:36:22.700Z,14.57
2019-02-26T08:38:56.507Z,19.47
2019-02-26T08:41:25.843Z,24.90
2019-02-26T08:43:58.682Z,20.13
2019-02-26T08:46:28.672Z,22.13
2019-02-26T08:49:08.041Z,24.47
2019-02-26T08:51:31.564Z,16.13
2019-02-26T08:54:02.177Z,18.80
2019-02-26T08:56:34.274Z,22.23
2019-02-26T08:59:05.153Z,15.07
2019-02-26T09:01:35.737Z,12.67
2019-02-26T09:04:06.244Z,12.57
2019-02-26T09:06:36.713Z,12.00
2019-02-26T09:09:08.162Z,20.20
2019-02-26T09:11:38.952Z,15.13
2019-02-26T09:14:11.538Z,7.57
2019-02-26T09:16:41.791Z,17.50
2019-02-26T09:19:12.175Z,15.40
2019-02-26T09:21:45.224Z,10.63
2019-02-26T09:24:14.847Z,20.30
2019-02-26T09:26:47.363Z,13.10
2019-02-26T09:29:19.534Z,10.80
2019-02-26T09:31:50.149Z,11.20
2019-02-26T09:34:20.765Z,14.43
2019-02-26T09:36:53.029Z,18.17
2019-02-26T09:39:23.916Z,17.57
2019-02-26T09:41:54.497Z,10.87
2019-02-26T09:44:26.263Z,20.67
2019-02-26T09:46:58.297Z,14.50
2019-02-26T09:49:31.445Z,12.70
2019-02-26T09:52:03.805Z,11.73
2019-02-26T09:54:37.694Z,19.83
2019-02-26T09:57:06.926Z,10.63
2019-02-26T09:59:38.536Z,14.47
2019-02-26T10:02:09.165Z,14.97
2019-02-26T10:04:39.808Z,9.40
2019-02-26T10:07:11.739Z,15.30
2019-02-26T10:09:45.928Z,15.43
2019-02-26T10:12:15.719Z,13.57
2019-02-26T10:14:52.260Z,22.30
2019-02-26T10:17:22.584Z,11.10
2019-02-26T10:19:54.350Z,12.70
2019-02-26T10:22:26.136Z,11.03
2019-02-26T10:24:57.658Z,16.20
2019-02-26T10:27:28.483Z,10.27
2019-02-26T10:30:02.848Z,13.13
2019-02-26T10:32:34.290Z,14.60
2019-02-26T10:35:06.491Z,9.83
2019-02-26T10:37:43.922Z,13.73
2019-02-26T10:40:16.985Z,9.00
2019-02-26T10:42:47.191Z,11.90
2019-02-26T10:45:21.355Z,12.90
2019-02-26T10:47:54.227Z,11.87
2019-02-26T10:50:25.564Z,9.10
2019-02-26T10:53:01.480Z,12.10
2019-02-26T10:55:35.281Z,13.57
2019-02-26T10:58:06.780Z,14.30
2019-02-26T11:00:35.373Z,13.23
2019-02-26T11:03:06.542Z,14.20
2019-02-26T11:05:39.768Z,11.73
2019-02-26T11:08:10.740Z,10.13
2019-02-26T11:10:43.981Z,15.83
2019-02-26T11:13:17.162Z,17.73
2019-02-26T11:15:48.269Z,12.30
2019-02-26T11:18:20.580Z,14.37
2019-02-26T11:20:52.874Z,11.47
2019-02-26T11:23:30.293Z,7.70
2019-02-26T11:25:55.094Z,13.33
2019-02-26T11:28:29.729Z,10.00
2019-02-26T11:30:57.953Z,10.23
2019-02-26T11:33:28.501Z,9.13
2019-02-26T11:35:59.656Z,12.30
2019-02-26T11:38:30.543Z,9.13
2019-02-26T11:41:02.280Z,10.03
2019-02-26T11:43:32.935Z,8.77
2019-02-26T11:46:04.479Z,12.00
2019-02-26T11:48:37.565Z,10.57
2019-02-26T11:51:08.133Z,6.80
2019-02-26T11:53:38.676Z,7.03
2019-02-26T11:56:09.453Z,14.07
2019-02-26T11:58:40.084Z,13.17
2019-02-26T12:01:13.644Z,12.77
2019-02-26T12:03:44.284Z,5.57
2019-02-26T12:06:15.004Z,10.90
2019-02-26T12:08:47.331Z,5.27
2019-02-26T12:11:20.425Z,10.00
2019-02-26T12:13:53.014Z,8.27
2019-02-26T12:16:22.886Z,3.87
2019-02-26T12:18:53.627Z,6.60
2019-02-26T12:21:25.217Z,8.10
2019-02-26T12:23:57.995Z,6.83
2019-02-26T12:26:30.188Z,8.73
2019-02-26T12:29:02.158Z,14.00
2019-02-26T12:31:34.493Z,9.83
2019-02-26T12:34:05.294Z,8.97
2019-02-26T12:36:35.716Z,8.97
2019-02-26T12:39:08.504Z,11.03
2019-02-26T12:41:41.751Z,10.37
2019-02-26T12:44:13.426Z,7.83
2019-02-26T12:46:44.855Z,12.77
2019-02-26T12:49:18.450Z,5.97
2019-02-26T12:51:50.465Z,6.43
2019-02-26T12:54:21.152Z,11.17
2019-02-26T12:56:54.773Z,6.53
2019-02-26T12:59:24.207Z,7.90
2019-02-26T13:01:54.877Z,8.23
2019-02-26T13:04:25.366Z,6.67
2019-02-26T13:06:56.093Z,12.30
2019-02-26T13:09:26.993Z,5.33
2019-02-26T13:12:02.534Z,9.50
2019-02-26T13:14:30.141Z,5.77
2019-02-26T13:17:01.442Z,8.43
2019-02-26T13:19:36.832Z,7.17
2019-02-26T13:22:08.910Z,5.10
2019-02-26T13:24:38.244Z,7.43
2019-02-26T13:27:08.902Z,5.87
2019-02-26T13:29:42.431Z,5.33
2019-02-26T13:32:13.685Z,8.43
2019-02-26T13:34:44.054Z,6.93
2019-02-26T13:37:14.714Z,9.77
2019-02-26T13:39:45.722Z,9.30
2019-02-26T13:42:19.278Z,6.40
2019-02-26T13:44:48.777Z,9.80
2019-02-26T13:47:19.531Z,9.07
2019-02-26T13:49:51.973Z,9.60
2019-02-26T13:52:22.504Z,8.10
2019-02-26T13:54:53.040Z,8.77
2019-02-26T13:57:23.765Z,5.87
2019-02-26T13:59:54.324Z,8.07
2019-02-26T14:02:24.789Z,5.17
2019-02-26T14:04:55.332Z,9.40
2019-02-26T14:07:26.738Z,8.63
2019-02-26T14:09:57.339Z,6.50
2019-02-26T14:12:27.878Z,6.97
2019-02-26T14:14:58.627Z,10.93
2019-02-26T14:17:29.214Z,12.43
2019-02-26T14:19:59.863Z,9.33
2019-02-26T14:22:31.669Z,9.60
2019-02-26T14:25:02.135Z,5.97
2019-02-26T14:27:33.587Z,6.20
2019-02-26T14:30:04.276Z,4.40
2019-02-26T14:32:35.028Z,11.93
2019-02-26T14:35:06.363Z,7.03
2019-02-26T14:37:37.042Z,10.67
2019-02-26T14:40:09.743Z,10.33
2019-02-26T14:42:40.561Z,9.00
2019-02-26T14:45:13.450Z,8.83
2019-02-26T14:47:44.187Z,8.43
2019-02-26T14:50:16.785Z,8.37
2019-02-26T14:52:47.509Z,6.43
2019-02-26T14:55:18.324Z,14.03
2019-02-26T14:57:48.843Z,9.93
2019-02-26T15:00:24.673Z,9.30
2019-02-26T15:02:55.501Z,7.60
2019-02-26T15:05:26.293Z,10.60
2019-02-26T15:07:56.908Z,14.80
2019-02-26T15:10:27.555Z,8.03
2019-02-26T15:12:58.565Z,12.03
2019-02-26T15:15:29.230Z,9.73
2019-02-26T15:17:59.973Z,11.77
2019-02-26T15:20:30.718Z,4.37
2019-02-26T15:23:01.525Z,7.20
2019-02-26T15:25:32.275Z,16.67
2019-02-26T15:28:05.423Z,11.83
2019-02-26T15:30:35.364Z,19.20
2019-02-26T15:33:10.982Z,10.73
2019-02-26T15:35:38.303Z,13.60
2019-02-26T15:38:09.001Z,13.83
2019-02-26T15:40:39.829Z,6.53
2019-02-26T15:43:10.650Z,15.73
2019-02-26T15:45:41.391Z,14.53
2019-02-26T15:48:12.174Z,7.67
2019-02-26T15:50:42.870Z,14.00
2019-02-26T15:53:13.635Z,15.00
2019-02-26T15:55:44.668Z,11.00
2019-02-26T15:58:15.327Z,12.30
2019-02-26T16:00:45.916Z,15.50
2019-02-26T16:03:17.359Z,9.40
2019-02-26T16:05:47.842Z,17.63
2019-02-26T16:08:18.723Z,12.77
2019-02-26T16:10:49.390Z,16.20
2019-02-26T16:13:20.886Z,10.93
2019-02-26T16:15:51.574Z,11.67
2019-02-26T16:18:22.262Z,10.40
2019-02-26T16:20:53.331Z,21.33
2019-02-26T16:23:24.419Z,13.47
2019-02-26T16:25:55.185Z,15.37
2019-02-26T16:28:27.328Z,17.20
2019-02-26T16:30:58.274Z,12.30
2019-02-26T16:33:30.023Z,14.73
2019-02-26T16:36:00.550Z,15.73
2019-02-26T16:38:31.266Z,13.43
2019-02-26T16:41:02.832Z,13.17
2019-02-26T16:43:34.364Z,10.83
2019-02-26T16:46:08.372Z,9.73
2019-02-26T16:48:37.741Z,8.43
2019-02-26T16:51:08.412Z,14.27
2019-02-26T16:53:39.091Z,16.20
2019-02-26T16:56:09.945Z,7.50
2019-02-26T16:58:40.675Z,9.43
2019-02-26T17:01:14.771Z,12.87
2019-02-26T17:03:45.585Z,10.97
2019-02-26T17:06:16.292Z,11.63
2019-02-26T17:08:47.321Z,10.23
2019-02-26T17:11:18.692Z,15.03
2019-02-26T17:13:49.576Z,13.67
2019-02-26T17:16:20.505Z,17.63
2019-02-26T17:18:51.235Z,14.90
2019-02-26T17:21:21.888Z,11.67
2019-02-26T17:23:52.822Z,19.27
2019-02-26T17:26:23.815Z,10.57
2019-02-26T17:28:54.285Z,18.53
2019-02-26T17:31:25.021Z,19.60
2019-02-26T17:33:55.589Z,11.00
2019-02-26T17:36:26.241Z,15.03
2019-02-26T17:38:56.788Z,14.53
2019-02-26T17:41:27.541Z,14.93
2019-02-26T17:43:59.505Z,18.23
2019-02-26T17:46:30.380Z,15.90
2019-02-26T17:49:02.833Z,14.87
2019-02-26T17:51:34.221Z,15.37
2019-02-26T17:54:04.925Z,15.70
2019-02-26T17:56:35.881Z,12.87
2019-02-26T17:59:06.647Z,15.60
2019-02-26T18:01:37.474Z,21.67
2019-02-26T18:04:08.139Z,20.20
2019-02-26T18:06:38.751Z,15.37
2019-02-26T18:09:09.684Z,11.50
2019-02-26T18:11:41.384Z,23.10
2019-02-26T18:14:12.318Z,16.90
2019-02-26T18:16:43.201Z,13.97
2019-02-26T18:19:14.194Z,10.17
2019-02-26T18:21:45.071Z,19.10
2019-02-26T18:24:16.764Z,16.67
2019-02-26T18:26:50.432Z,11.20
2019-02-26T18:29:21.276Z,18.00
2019-02-26T18:31:53.545Z,18.47
2019-02-26T18:34:24.322Z,12.80
2019-02-26T18:36:54.895Z,19.83
2019-02-26T18:39:25.383Z,17.77
2019-02-26T18:41:56.103Z,16.87
2019-02-26T18:44:28.480Z,18.00
2019-02-26T18:46:59.632Z,22.70
2019-02-26T18:49:30.490Z,20.23
2019-02-26T18:52:01.209Z,21.30
2019-02-26T18:54:31.956Z,12.20
2019-02-26T18:57:04.131Z,12.47
2019-02-26T18:59:34.924Z,23.80
2019-02-26T19:02:05.970Z,22.87
2019-02-26T19:04:36.652Z,24.87
2019-02-26T19:07:07.526Z,26.40
2019-02-26T19:09:38.282Z,27.77
2019-02-26T19:12:09.023Z,27.97
2019-02-26T19:14:42.331Z,32.13
2019-02-26T19:17:13.025Z,21.17
2019-02-26T19:19:44.575Z,23.60
2019-02-26T19:22:15.320Z,23.90
2019-02-26T19:24:47.555Z,16.50
2019-02-26T19:27:20.139Z,30.13
2019-02-26T19:29:51.342Z,28.50
2019-02-26T19:32:25.891Z,31.83
2019-02-26T19:34:58.701Z,21.53
2019-02-26T19:37:30.866Z,25.80
2019-02-26T19:40:05.861Z,22.10
2019-02-26T19:42:37.574Z,17.73
2019-02-26T19:45:11.739Z,23.20
2019-02-26T19:47:44.805Z,21.70
2019-02-26T19:50:19.281Z,16.50
2019-02-26T19:53:03.170Z,18.00
2019-02-26T19:58:34.293Z,15.10
2019-02-26T20:01:05.206Z,23.07
2019-02-26T20:06:52.309Z,14.13
2019-02-26T20:09:23.299Z,17.07
2019-02-26T20:11:56.242Z,20.83
2019-02-26T20:17:27.356Z,20.03
2019-02-26T20:19:59.184Z,20.43
2019-02-26T20:22:33.270Z,24.93
2019-02-26T20:37:33.203Z,22.80
2019-02-26T20:40:04.478Z,20.80
2019-02-26T20:42:35.330Z,27.93
2019-02-26T20:45:07.295Z,26.40
2019-02-26T20:47:38.105Z,20.03
2019-02-26T20:50:10.101Z,16.60
2019-02-26T20:52:41.214Z,20.70
2019-02-26T20:58:25.537Z,20.90
2019-02-26T21:00:58.620Z,24.53
2019-02-26T21:03:28.528Z,23.77
2019-02-26T21:05:59.174Z,22.23
2019-02-26T21:08:30.999Z,21.30
2019-02-26T21:11:02.372Z,14.50
2019-02-26T21:13:34.997Z,15.80
2019-02-26T21:16:07.194Z,27.93
2019-02-26T21:18:39.332Z,24.97
2019-02-26T21:21:11.706Z,31.97
2019-02-26T21:23:42.123Z,28.90
2019-02-26T21:26:19.320Z,23.73
2019-02-26T21:28:49.053Z,22.70
2019-02-26T21:31:20.692Z,24.87
2019-02-26T21:33:57.984Z,27.17
2019-02-26T21:36:28.596Z,22.50
2019-02-26T21:39:11.080Z,23.90
2019-02-26T21:41:43.156Z,23.83
2019-02-26T21:44:14.212Z,16.73
2019-02-26T21:46:45.122Z,25.03
2019-02-26T21:58:42.677Z,20.17
2019-02-26T22:01:13.249Z,19.03
2019-02-26T22:03:43.717Z,18.27
2019-02-26T22:06:14.298Z,22.80
2019-02-26T22:08:44.743Z,19.80
2019-02-26T22:11:18.334Z,23.60
2019-02-26T22:13:47.963Z,16.07
2019-02-26T22:16:18.596Z,23.37
2019-02-26T22:18:49.174Z,13.40
2019-02-26T22:21:31.378Z,13.33
2019-02-26T22:24:02.017Z,15.93
2019-02-26T22:26:32.457Z,24.27
2019-02-26T22:29:02.892Z,21.23
2019-02-26T22:32:02.538Z,25.27
2019-02-26T22:34:33.250Z,8.37
2019-02-26T22:37:15.891Z,20.30
2019-02-26T22:40:34.228Z,17.30
2019-02-26T22:49:20.758Z,19.17
2019-02-26T22:51:51.816Z,15.80
2019-02-26T22:54:22.219Z,12.10
2019-02-26T22:56:56.718Z,14.97
2019-02-26T22:59:24.816Z,9.20
2019-02-26T23:01:57.242Z,19.17
2019-02-26T23:04:27.691Z,12.60
2019-02-26T23:06:58.347Z,12.57
2019-02-26T23:09:30.134Z,7.67
2019-02-26T23:12:04.843Z,15.97
2019-02-26T23:14:35.899Z,15.27
2019-02-26T23:17:08.709Z,8.37
2019-02-26T23:19:39.516Z,9.30
2019-02-26T23:22:10.318Z,15.80
2019-02-26T23:24:41.450Z,22.50
2019-02-26T23:27:14.943Z,15.97
2019-02-26T23:29:45.244Z,25.03
2019-02-26T23:32:16.359Z,15.17
2019-02-26T23:35:03.039Z,16.80
2019-02-26T23:37:34.636Z,25.43
2019-02-26T23:40:06.707Z,15.13
2019-02-26T23:42:38.955Z,16.17
2019-02-26T23:45:09.710Z,16.33
2019-02-26T23:47:40.374Z,21.40
2019-02-26T23:50:12.087Z,11.77
2019-02-26T23:52:42.587Z,16.07
2019-02-26T23:55:13.986Z,13.60
2019-02-26T23:57:44.456Z,16.77
